Time;durP1;ratioP1;P1;durP2;ratioP2;P2;SDS_P1;SDS_P2;PMS_P1;PMS_P2;Temp;Humidity;BMP_temperature;BMP_pressure;BME280_temperature;BME280_humidity;BME280_pressure;Samples;Min_cycle;Max_cycle;Signal;HPM_P1;HPM_P2
2022/04/24 00:00:31;;;;;;;7.70;2.27;;;;;;;16.61;62.95;98461.91;4922829;29;20182;-93
2022/04/24 00:02:57;;;;;;;7.30;3.73;;;;;;;16.65;62.50;98465.09;4940077;29;20660;-93
2022/04/24 00:05:23;;;;;;;6.37;2.07;;;;;;;16.65;62.46;98462.47;4939982;29;20652;-93
2022/04/24 00:07:49;;;;;;;6.13;1.90;;;;;;;16.66;62.54;98466.78;4956896;28;20184;-93
2022/04/24 00:10:15;;;;;;;6.13;2.07;;;;;;;16.64;62.14;98466.09;4955993;29;20185;-92
2022/04/24 00:12:42;;;;;;;4.17;2.40;;;;;;;16.59;62.78;98463.84;4954622;29;20568;-92
2022/04/24 00:15:09;;;;;;;5.33;2.43;;;;;;;16.55;63.23;98465.94;4920554;29;20213;-92
2022/04/24 00:17:37;;;;;;;5.60;2.83;;;;;;;16.39;65.14;98465.56;4920650;29;20188;-92
2022/04/24 00:20:05;;;;;;;4.17;2.13;;;;;;;16.22;65.60;98468.78;4921098;29;20204;-92
2022/04/24 00:22:31;;;;;;;6.87;2.80;;;;;;;16.03;67.09;98460.78;4939614;29;20659;-93
2022/04/24 00:24:57;;;;;;;6.87;2.27;;;;;;;15.93;68.62;98470.47;4956456;29;20632;-92
2022/04/24 00:27:23;;;;;;;3.77;1.80;;;;;;;15.85;69.53;98467.63;4956606;29;20188;-93
2022/04/24 00:29:49;;;;;;;11.47;1.87;;;;;;;15.92;70.18;98476.72;4939617;29;20180;-93
2022/04/24 00:32:14;;;;;;;2.83;1.87;;;;;;;15.92;69.89;98468.78;4956117;29;20246;-92
2022/04/24 00:34:41;;;;;;;3.47;2.30;;;;;;;15.96;69.48;98470.19;4956225;29;20545;-92
2022/04/24 00:37:08;;;;;;;4.13;1.73;;;;;;;15.99;69.55;98475.22;4940480;29;20676;-93
2022/04/24 00:39:35;;;;;;;3.60;1.60;;;;;;;16.05;69.38;98479.16;4956016;29;20185;-91
2022/04/24 00:42:00;;;;;;;4.43;1.50;;;;;;;16.03;68.78;98476.66;4939115;29;20299;-91
2022/04/24 00:44:29;;;;;;;4.27;1.77;;;;;;;16.09;68.55;98470.81;4956210;29;20647;-91
2022/04/24 00:47:14;;;;;;;5.30;1.90;;;;;;;16.19;68.04;98477.03;4939017;29;20538;-92
2022/04/24 00:49:43;;;;;;;6.30;1.80;;;;;;;16.34;67.37;98473.06;4956023;29;20157;-90
2022/04/24 00:52:11;;;;;;;4.07;2.33;;;;;;;16.40;67.02;98472.50;4956235;29;20192;-90
2022/04/24 00:54:37;;;;;;;4.33;2.13;;;;;;;16.51;66.09;98472.41;4938476;29;20228;-90
2022/04/24 00:57:10;;;;;;;3.43;1.37;;;;;;;16.58;65.87;98473.59;4938759;29;20279;-91
2022/04/24 00:59:37;;;;;;;2.60;1.30;;;;;;;16.57;65.59;98477.22;4955512;29;20647;-90
2022/04/24 01:02:06;;;;;;;4.30;1.57;;;;;;;16.63;65.29;98477.63;4955507;29;20199;-91
2022/04/24 01:04:34;;;;;;;17.93;1.83;;;;;;;16.63;65.33;98480.28;4938596;29;20644;-90
2022/04/24 01:07:02;;;;;;;4.50;1.60;;;;;;;16.62;65.27;98486.53;4950579;29;20200;-90
2022/04/24 01:09:31;;;;;;;3.07;1.63;;;;;;;16.70;65.11;98486.69;4934769;29;20612;-91
2022/04/24 01:11:58;;;;;;;5.07;2.80;;;;;;;16.59;63.20;98495.56;4955399;29;20199;-91
2022/04/24 01:14:26;;;;;;;3.87;2.03;;;;;;;16.52;63.02;98489.13;4938459;29;20213;-91
2022/04/24 01:16:54;;;;;;;3.60;1.73;;;;;;;16.45;62.30;98488.00;4955286;29;20216;-91
2022/04/24 01:19:21;;;;;;;6.03;3.17;;;;;;;16.45;62.26;98496.78;4955572;29;20256;-91
2022/04/24 01:21:48;;;;;;;8.93;3.20;;;;;;;16.38;61.72;98497.41;4955429;28;20185;-91
2022/04/24 01:24:17;;;;;;;10.70;2.93;;;;;;;16.37;62.01;98496.59;4938357;29;20185;-90
2022/04/24 01:26:43;;;;;;;7.63;2.67;;;;;;;16.37;62.08;98491.31;4955529;29;20212;-91
2022/04/24 01:29:11;;;;;;;6.90;2.77;;;;;;;16.29;62.02;98488.47;4955121;29;20255;-92
2022/04/24 01:31:38;;;;;;;9.07;3.57;;;;;;;16.24;62.32;98495.97;4938266;29;20648;-91
2022/04/24 01:34:05;;;;;;;8.00;2.83;;;;;;;16.15;62.85;98491.44;4955169;29;20675;-91
2022/04/24 01:36:35;;;;;;;14.37;3.37;;;;;;;16.08;62.67;98492.09;4955191;29;20180;-92
2022/04/24 01:39:03;;;;;;;8.50;3.27;;;;;;;15.99;62.89;98488.44;4938261;29;20268;-92
2022/04/24 01:41:29;;;;;;;8.80;3.03;;;;;;;15.91;63.35;98488.25;4955056;29;20184;-92
2022/04/24 01:43:55;;;;;;;8.67;2.40;;;;;;;15.88;63.15;98493.78;4938276;29;20207;-91
2022/04/24 01:46:21;;;;;;;7.90;2.73;;;;;;;15.79;63.54;98489.28;4938278;29;20276;-91
2022/04/24 01:48:47;;;;;;;10.00;2.17;;;;;;;15.75;63.86;98493.13;4954990;29;20263;-91
2022/04/24 01:51:14;;;;;;;4.57;1.80;;;;;;;15.64;64.36;98499.34;4955501;29;20188;-91
2022/04/24 01:53:40;;;;;;;6.60;2.10;;;;;;;15.62;64.49;98497.75;4954913;28;20251;-92
2022/04/24 01:56:07;;;;;;;6.80;2.53;;;;;;;15.53;64.92;98503.84;4954842;28;20244;-92
2022/04/24 01:58:34;;;;;;;4.13;2.30;;;;;;;15.57;64.88;98499.97;4955026;29;20263;-92
2022/04/24 02:01:02;;;;;;;3.00;1.77;;;;;;;15.57;64.95;98508.72;4954992;29;20178;-92
2022/04/24 02:03:29;;;;;;;4.33;2.23;;;;;;;15.62;64.74;98513.63;4954814;29;20842;-92
2022/04/24 02:05:55;;;;;;;7.87;2.70;;;;;;;15.65;64.72;98505.44;4954862;29;20191;-92
2022/04/24 02:08:22;;;;;;;4.83;1.80;;;;;;;15.65;64.38;98508.94;4937983;29;20188;-91
2022/04/24 02:10:49;;;;;;;4.27;1.67;;;;;;;15.53;64.88;98509.97;4954839;29;20267;-91
2022/04/24 02:13:17;;;;;;;12.03;2.23;;;;;;;15.53;65.13;98509.13;4954892;29;20220;-92
2022/04/24 02:15:45;;;;;;;6.57;1.67;;;;;;;15.47;65.23;98513.09;4954699;29;20277;-91
2022/04/24 02:18:12;;;;;;;11.10;2.43;;;;;;;15.41;65.62;98515.38;4937964;29;20259;-92
2022/04/24 02:20:38;;;;;;;4.13;1.67;;;;;;;15.29;65.68;98512.78;4955115;29;20250;-91
2022/04/24 02:23:05;;;;;;;17.47;4.00;;;;;;;15.21;65.91;98509.06;4955266;29;20623;-91
2022/04/24 02:25:30;;;;;;;6.93;3.03;;;;;;;15.14;66.69;98514.03;4937793;29;20180;-91
2022/04/24 02:27:57;;;;;;;4.13;2.23;;;;;;;15.19;66.81;98511.00;4954714;29;20209;-91
2022/04/24 02:30:24;;;;;;;13.63;2.97;;;;;;;15.14;66.80;98511.38;4955117;29;20188;-92
2022/04/24 02:32:51;;;;;;;9.27;2.43;;;;;;;15.10;67.37;98515.22;4940070;29;20523;-92
2022/04/24 02:35:17;;;;;;;15.53;2.83;;;;;;;15.18;67.04;98523.38;4941574;29;20274;-91
2022/04/24 02:37:44;;;;;;;14.63;3.63;;;;;;;15.18;67.30;98523.38;4958405;29;20190;-91
2022/04/24 02:40:11;;;;;;;9.80;3.13;;;;;;;15.22;67.15;98519.53;4958808;29;20176;-91
2022/04/24 02:42:38;;;;;;;5.17;2.60;;;;;;;15.16;67.26;98527.94;4958395;29;20187;-91
2022/04/24 02:45:08;;;;;;;6.37;2.13;;;;;;;15.16;67.61;98527.09;4958422;29;20190;-91
2022/04/24 02:47:38;;;;;;;8.83;2.93;;;;;;;15.16;67.23;98535.00;4958147;29;20178;-91
2022/04/24 02:50:04;;;;;;;1.87;1.30;;;;;;;15.08;67.42;98519.78;4941247;29;20304;-93
2022/04/24 02:52:31;;;;;;;1.67;0.97;;;;;;;15.18;67.42;98527.78;4941239;29;20258;-92
2022/04/24 02:54:57;;;;;;;4.53;1.97;;;;;;;15.25;67.20;98536.91;4940339;29;20314;-91
2022/04/24 02:57:23;;;;;;;5.10;2.43;;;;;;;15.28;67.10;98541.94;4957683;29;20197;-91
2022/04/24 02:59:50;;;;;;;12.23;2.60;;;;;;;15.22;67.14;98538.00;4958159;29;20187;-92
2022/04/24 03:02:19;;;;;;;7.80;2.13;;;;;;;15.16;66.42;98549.06;4957788;29;20182;-91
2022/04/24 03:04:46;;;;;;;4.10;1.87;;;;;;;15.11;66.69;98545.94;4940981;29;20241;-92
2022/04/24 03:07:13;;;;;;;10.17;2.73;;;;;;;15.05;66.87;98551.69;4957969;29;20182;-92
2022/04/24 03:09:41;;;;;;;4.53;2.53;;;;;;;15.10;66.77;98549.53;4957972;29;20607;-91
2022/04/24 03:12:08;;;;;;;5.93;2.40;;;;;;;14.96;67.17;98555.09;4957636;29;20244;-93
2022/04/24 03:14:35;;;;;;;6.33;2.23;;;;;;;14.97;66.62;98546.19;4957556;29;20269;-92
2022/04/24 03:17:01;;;;;;;5.97;2.47;;;;;;;14.80;67.05;98559.06;4940753;29;20190;-92
2022/04/24 03:19:27;;;;;;;5.27;2.20;;;;;;;14.89;66.58;98555.69;4940802;29;20545;-91
2022/04/24 03:21:52;;;;;;;5.97;2.73;;;;;;;14.78;66.73;98572.34;4957578;29;20183;-91
2022/04/24 03:24:19;;;;;;;7.60;2.33;;;;;;;14.80;66.77;98566.97;4957404;29;20173;-91
2022/04/24 03:26:46;;;;;;;4.97;2.40;;;;;;;14.74;66.89;98581.47;4940460;29;20186;-91
2022/04/24 03:29:13;;;;;;;5.43;2.63;;;;;;;14.77;66.64;98574.19;4957328;29;20178;-91
2022/04/24 03:31:38;;;;;;;5.93;2.43;;;;;;;14.75;66.57;98580.53;4940520;29;20183;-92
2022/04/24 03:34:06;;;;;;;5.20;2.40;;;;;;;14.76;66.27;98587.47;4940571;29;20244;-93
2022/04/24 03:36:32;;;;;;;13.70;4.37;;;;;;;14.72;66.62;98581.63;4940428;29;20244;-92
2022/04/24 03:38:59;;;;;;;17.37;3.63;;;;;;;14.67;66.81;98588.22;4940471;29;20186;-93
2022/04/24 03:41:24;;;;;;;6.30;2.13;;;;;;;14.62;67.31;98591.19;4940661;29;20197;-91
2022/04/24 03:43:51;;;;;;;3.73;1.90;;;;;;;14.64;67.30;98597.19;4956001;28;20672;-92
2022/04/24 03:46:18;;;;;;;3.70;1.87;;;;;;;14.64;67.41;98599.00;4957577;29;20179;-91
2022/04/24 03:48:45;;;;;;;8.60;2.87;;;;;;;14.64;67.34;98602.47;4940350;29;20214;-92
2022/04/24 03:51:11;;;;;;;8.50;2.40;;;;;;;14.62;67.61;98603.56;4956986;29;20177;-90
2022/04/24 03:53:38;;;;;;;2.90;1.53;;;;;;;14.59;68.27;98614.34;4951291;29;20645;-89
2022/04/24 03:56:05;;;;;;;4.07;2.00;;;;;;;14.52;68.84;98610.47;4952843;28;20214;-89
2022/04/24 03:58:31;;;;;;;4.67;2.40;;;;;;;14.52;69.11;98615.75;4939612;29;20183;-90
2022/04/24 04:00:59;;;;;;;4.47;2.30;;;;;;;14.49;69.95;98621.28;4937502;29;20179;-90
2022/04/24 04:03:26;;;;;;;7.27;3.20;;;;;;;14.51;70.12;98609.66;4937947;29;20186;-90
2022/04/24 04:05:52;;;;;;;2.20;1.60;;;;;;;14.54;70.50;98624.41;4937407;29;20177;-89
2022/04/24 04:08:18;;;;;;;4.23;2.23;;;;;;;14.58;70.61;98620.56;4937669;29;20182;-89
2022/04/24 04:10:43;;;;;;;4.10;2.07;;;;;;;14.68;70.89;98616.25;4937226;29;20183;-89
2022/04/24 04:13:11;;;;;;;16.47;3.30;;;;;;;14.75;70.84;98625.38;4937525;29;20191;-89
2022/04/24 04:15:38;;;;;;;4.70;2.97;;;;;;;14.81;70.72;98630.16;4936981;29;20290;-88
2022/04/24 04:18:05;;;;;;;6.23;3.50;;;;;;;14.94;70.93;98633.53;4937427;29;20348;-89
2022/04/24 04:20:30;;;;;;;6.50;3.97;;;;;;;15.11;70.62;98642.78;4937680;29;20179;-89
2022/04/24 04:22:58;;;;;;;9.37;3.33;;;;;;;15.17;70.69;98643.09;4937487;29;20175;-89
2022/04/24 04:25:24;;;;;;;21.93;5.53;;;;;;;15.36;70.54;98648.63;4920436;29;20600;-90
2022/04/24 04:27:52;;;;;;;11.73;6.13;;;;;;;15.57;70.34;98653.16;4937464;28;20219;-89
2022/04/24 04:30:20;;;;;;;10.23;3.50;;;;;;;15.81;69.54;98649.38;4945228;29;20192;-89
2022/04/24 04:32:47;;;;;;;7.23;4.30;;;;;;;16.02;69.15;98654.72;4936365;29;20187;-88
2022/04/24 04:35:12;;;;;;;7.07;4.03;;;;;;;16.20;68.32;98657.63;4934908;29;20699;-89
2022/04/24 04:37:39;;;;;;;7.53;3.33;;;;;;;16.41;68.25;98655.84;4935184;29;20325;-89
2022/04/24 04:40:07;;;;;;;7.10;3.60;;;;;;;16.58;68.86;98656.16;4919179;29;20188;-89
2022/04/24 04:42:34;;;;;;;7.50;3.77;;;;;;;16.82;67.99;98655.03;4919456;29;20677;-90
2022/04/24 04:45:00;;;;;;;10.97;3.50;;;;;;;17.11;66.99;98653.38;4935896;29;20182;-90
2022/04/24 04:47:31;;;;;;;12.17;3.67;;;;;;;17.32;66.77;98663.91;4935893;29;20185;-90
2022/04/24 04:49:56;;;;;;;9.33;4.03;;;;;;;17.36;65.53;98663.50;4934841;29;20176;-90
2022/04/24 04:52:22;;;;;;;12.50;4.43;;;;;;;17.52;65.58;98661.19;4934714;29;20268;-90
2022/04/24 04:54:49;;;;;;;10.30;4.07;;;;;;;17.77;65.17;98662.50;4917542;29;20724;-90
2022/04/24 04:57:16;;;;;;;7.67;3.77;;;;;;;18.05;63.26;98666.19;4952967;29;20189;-90
2022/04/24 04:59:46;;;;;;;6.43;3.10;;;;;;;18.35;61.70;98666.03;4953842;29;20183;-90
2022/04/24 05:02:13;;;;;;;5.77;2.87;;;;;;;18.80;60.16;98656.50;4953893;29;20198;-91
2022/04/24 05:04:43;;;;;;;5.23;2.20;;;;;;;19.37;58.68;98655.47;4955026;29;20243;-90
2022/04/24 05:07:11;;;;;;;4.63;2.50;;;;;;;19.76;57.18;98656.09;4938566;29;20284;-90
2022/04/24 05:09:37;;;;;;;4.43;1.97;;;;;;;19.99;56.82;98652.03;4955419;29;20257;-91
2022/04/24 05:12:04;;;;;;;2.93;2.03;;;;;;;20.18;55.81;98656.34;4955398;29;20820;-90
2022/04/24 05:14:31;;;;;;;4.57;1.73;;;;;;;20.23;55.57;98654.06;4938288;29;20594;-90
2022/04/24 05:16:58;;;;;;;2.20;1.20;;;;;;;20.15;53.76;98654.81;4955246;29;20236;-90
2022/04/24 05:19:25;;;;;;;11.20;1.50;;;;;;;20.19;55.05;98660.69;4954500;29;20235;-91
2022/04/24 05:21:52;;;;;;;0.97;0.60;;;;;;;20.35;53.07;98657.34;4955213;29;20177;-90
2022/04/24 05:24:19;;;;;;;1.30;0.73;;;;;;;20.41;52.51;98651.44;4955058;29;20264;-91
2022/04/24 05:26:46;;;;;;;1.73;0.80;;;;;;;20.46;52.47;98655.31;4955431;29;20193;-90
2022/04/24 05:29:12;;;;;;;4.23;1.43;;;;;;;20.49;52.14;98659.50;4955768;29;20250;-91
2022/04/24 05:31:38;;;;;;;1.97;1.00;;;;;;;20.49;51.79;98651.50;4955410;29;20196;-91
2022/04/24 05:34:05;;;;;;;1.10;0.70;;;;;;;20.49;51.80;98654.16;4955027;29;20181;-90
2022/04/24 05:36:30;;;;;;;8.03;1.40;;;;;;;20.53;50.95;98650.19;4938163;29;20276;-89
2022/04/24 05:38:57;;;;;;;3.27;1.70;;;;;;;20.63;51.97;98650.91;4955304;29;20177;-89
2022/04/24 05:41:24;;;;;;;2.77;1.47;;;;;;;20.78;52.12;98650.19;4950482;28;20188;-90
2022/04/24 05:43:50;;;;;;;2.30;1.07;;;;;;;20.82;49.28;98648.06;4943991;29;20208;-90
2022/04/24 05:46:17;;;;;;;2.40;0.63;;;;;;;20.83;48.76;98647.91;4935683;29;20192;-90
2022/04/24 05:48:44;;;;;;;5.80;0.90;;;;;;;20.81;49.58;98643.72;4945435;29;20189;-90
2022/04/24 05:51:10;;;;;;;2.63;1.00;;;;;;;20.65;49.76;98655.09;4953066;29;20173;-89
2022/04/24 05:53:37;;;;;;;2.63;1.17;;;;;;;20.79;50.38;98645.72;4935329;29;20195;-88
2022/04/24 05:56:04;;;;;;;4.70;1.10;;;;;;;20.88;50.17;98650.13;4935035;29;20276;-89
2022/04/24 05:58:31;;;;;;;1.10;0.73;;;;;;;21.03;49.79;98647.69;4935552;29;20689;-89
2022/04/24 06:00:58;;;;;;;2.37;1.07;;;;;;;21.19;49.18;98656.66;4935425;29;20178;-89
2022/04/24 06:03:25;;;;;;;2.90;0.90;;;;;;;21.32;49.06;98650.88;4928747;29;20272;-89
2022/04/24 06:05:50;;;;;;;6.20;1.20;;;;;;;21.42;48.62;98648.91;4954621;28;20669;-89
2022/04/24 06:08:17;;;;;;;1.93;0.83;;;;;;;21.49;48.41;98649.13;4957421;29;20172;-88
2022/04/24 06:10:44;;;;;;;4.67;1.40;;;;;;;21.56;48.21;98647.47;4958673;29;20239;-89
2022/04/24 06:13:11;;;;;;;3.40;1.33;;;;;;;21.34;46.87;98644.38;4958469;29;20211;-88
2022/04/24 06:15:38;;;;;;;1.10;0.70;;;;;;;21.44;47.80;98647.75;4958410;29;20303;-89
2022/04/24 06:18:05;;;;;;;3.43;0.93;;;;;;;21.65;46.86;98643.81;4958369;29;20192;-89
2022/04/24 06:20:31;;;;;;;3.23;0.87;;;;;;;21.94;46.46;98649.59;4958345;29;20696;-88
2022/04/24 06:22:59;;;;;;;5.50;1.13;;;;;;;22.40;46.83;98643.66;4958097;29;20185;-88
2022/04/24 06:25:36;;;;;;;3.17;1.17;;;;;;;22.99;45.46;98641.59;4941442;29;20196;-89
2022/04/24 06:28:04;;;;;;;3.03;1.23;;;;;;;23.45;44.76;98634.63;4957229;29;20609;-89
2022/04/24 06:30:31;;;;;;;1.40;0.80;;;;;;;23.78;42.49;98634.28;4958214;29;20247;-89
2022/04/24 06:33:01;;;;;;;3.17;1.20;;;;;;;23.93;43.45;98634.34;4958382;29;20213;-88
2022/04/24 06:35:28;;;;;;;1.43;0.80;;;;;;;24.06;43.27;98634.59;4957908;29;20232;-90
2022/04/24 06:37:57;;;;;;;2.97;1.33;;;;;;;24.35;42.54;98642.78;4957945;29;20189;-93
2022/04/24 06:40:27;;;;;;;4.40;1.13;;;;;;;24.62;41.27;98643.22;4958099;29;20268;-91
2022/04/24 06:42:57;;;;;;;4.77;1.37;;;;;;;24.88;40.90;98641.84;4941245;29;20235;-90
2022/04/24 06:45:30;;;;;;;9.27;1.20;;;;;;;24.82;41.71;98639.88;4958084;29;20212;-91
2022/04/24 06:48:14;;;;;;;4.80;1.10;;;;;;;25.05;41.83;98643.31;4941235;29;20184;-92
2022/04/24 06:50:57;;;;;;;;;;;;;;;;;;;;;
2022/04/24 06:53:27;;;;;;;2.20;0.87;;;;;;;25.61;41.12;98641.00;4939274;29;20204;-91
2022/04/24 06:55:57;;;;;;;2.90;1.20;;;;;;;25.94;39.89;98650.28;4940700;29;20287;-91
2022/04/24 06:58:25;;;;;;;2.53;0.97;;;;;;;26.17;39.39;98642.94;4957430;29;20219;-91
2022/04/24 07:00:54;;;;;;;2.90;1.43;;;;;;;26.29;40.19;98647.78;4940349;29;20187;-91
2022/04/24 07:03:50;;;;;;;3.33;0.97;;;;;;;26.50;38.15;98637.88;4941483;29;20192;-91
2022/04/24 07:09:37;;;;;;;3.33;1.17;;;;;;;26.62;37.95;98638.19;4934192;28;20201;-90
2022/04/24 07:12:05;;;;;;;3.03;1.00;;;;;;;26.36;37.97;98635.25;4939881;29;20192;-89
2022/04/24 07:14:45;;;;;;;10.97;3.10;;;;;;;26.60;40.71;98640.22;4954613;29;20267;-92
2022/04/24 07:17:41;;;;;;;3.50;1.03;;;;;;;26.85;39.02;98630.72;4940650;29;20235;-91
2022/04/24 07:20:37;;;;;;;;;;;;;;;;;;;;;
2022/04/24 07:23:15;;;;;;;4.13;1.13;;;;;;;26.91;38.43;98635.34;4956213;29;20177;-92
2022/04/24 07:25:50;;;;;;;1.95;0.98;;;;;;;27.09;39.36;98641.03;4954223;29;20169;-91
2022/04/24 07:28:35;;;;;;;;;;;;;;;;;;;;;
2022/04/24 07:31:01;;;;;;;2.92;1.13;;;;;;;27.38;38.46;98638.09;4956151;28;20258;-91
2022/04/24 07:33:40;;;;;;;;;;;;;;;;;;;;;
2022/04/24 07:36:59;;;;;;;;;;;;;;;;;;;;;
2022/04/24 07:40:08;;;;;;;1.85;0.70;;;;;;;28.10;36.98;98642.97;4943570;28;20189;-94
2022/04/24 07:43:58;;;;;;;;;;;;;;;;;;;;;
2022/04/24 07:46:15;;;;;;;2.58;1.10;;;;;;;28.29;35.45;98636.81;4930207;29;20192;-93
2022/04/24 07:49:57;;;;;;;4.85;1.38;;;;;;;28.46;36.14;98632.66;4937885;29;20518;-92
2022/04/24 07:52:28;;;;;;;6.90;1.40;;;;;;;28.13;34.90;98630.97;4885152;29;20200;-94
2022/04/24 08:10:00;;;;;;;3.42;1.30;;;;;;;28.41;34.21;98632.47;4805286;29;20209;-93
2022/04/24 08:15:50;;;;;;;5.63;1.27;;;;;;;28.34;34.20;98618.16;4731207;30;20228;-91
2022/04/24 08:18:47;;;;;;;3.33;0.98;;;;;;;28.48;33.69;98614.44;4748050;30;20276;-93
2022/04/24 08:22:08;;;;;;;7.05;1.95;;;;;;;28.68;33.80;98605.53;4769735;30;20196;-93
2022/04/24 08:24:33;;;;;;;8.52;1.60;;;;;;;28.17;34.13;98605.28;4717352;30;20185;-93
2022/04/24 08:26:59;;;;;;;8.00;1.20;;;;;;;27.85;34.85;98612.22;4847758;29;20196;-92
2022/04/24 08:29:37;;;;;;;3.03;1.13;;;;;;;27.88;35.95;98606.44;4907120;29;20620;-94
2022/04/24 08:35:29;;;;;;;4.97;1.58;;;;;;;28.16;34.97;98604.44;4867915;29;20696;-91
2022/04/24 08:37:55;;;;;;;7.60;1.40;;;;;;;28.11;34.26;98612.31;4918089;29;20277;-92
2022/04/24 08:40:24;;;;;;;2.92;1.35;;;;;;;28.17;35.40;98607.97;4919178;29;20201;-89
2022/04/24 08:42:57;;;;;;;7.32;1.90;;;;;;;28.24;35.10;98601.56;4935143;29;20638;-93
2022/04/24 08:45:29;;;;;;;8.45;2.42;;;;;;;28.38;34.70;98591.63;4929283;28;20195;-93
2022/04/24 08:47:57;;;;;;;6.88;2.63;;;;;;;28.31;35.74;98604.25;4958058;28;20176;-91
2022/04/24 08:50:29;;;;;;;2.45;1.17;;;;;;;28.18;35.21;98590.75;4958154;28;20542;-91
2022/04/24 08:52:57;;;;;;;10.23;1.30;;;;;;;28.28;35.79;98594.69;4975613;28;20232;-92
2022/04/24 08:55:26;;;;;;;2.75;1.08;;;;;;;28.38;34.81;98589.72;4974751;28;20215;-92
2022/04/24 08:57:53;;;;;;;4.32;1.52;;;;;;;28.48;35.33;98582.06;4957601;28;20188;-90
2022/04/24 09:00:22;;;;;;;2.47;1.00;;;;;;;28.44;34.38;98583.50;4957341;28;20240;-93
2022/04/24 09:02:49;;;;;;;7.47;1.75;;;;;;;28.53;34.82;98579.59;4955725;28;20184;-91
2022/04/24 09:05:15;;;;;;;4.85;1.55;;;;;;;28.43;34.96;98573.75;4954853;29;20182;-92
2022/04/24 09:07:43;;;;;;;8.25;1.77;;;;;;;28.36;35.91;98577.50;4938236;29;20177;-92
2022/04/24 09:10:13;;;;;;;9.43;1.73;;;;;;;28.61;35.68;98565.06;4953959;29;20185;-88
2022/04/24 09:13:12;;;;;;;6.13;1.27;;;;;;;28.57;34.97;98570.03;4936973;29;20197;-94
2022/04/24 09:15:38;;;;;;;3.42;1.20;;;;;;;28.43;35.30;98567.56;4953345;29;20229;-88
2022/04/24 09:18:10;;;;;;;3.50;1.08;;;;;;;28.76;35.44;98557.59;4954417;29;20184;-93
2022/04/24 09:20:42;;;;;;;10.95;1.75;;;;;;;28.77;36.23;98570.06;4953627;29;20240;-90
2022/04/24 09:23:09;;;;;;;6.57;1.20;;;;;;;29.04;34.58;98554.59;4936527;29;20658;-90
2022/04/24 09:25:42;;;;;;;5.28;1.35;;;;;;;28.88;34.49;98553.19;4938091;29;20216;-92
2022/04/24 09:28:40;;;;;;;6.53;1.42;;;;;;;29.27;35.10;98555.00;4938436;29;20277;-93
2022/04/24 09:31:16;;;;;;;3.20;1.38;;;;;;;29.63;34.31;98555.25;4939549;29;20265;-91
2022/04/24 09:33:43;;;;;;;3.42;1.08;;;;;;;29.60;33.35;98552.97;4955972;29;20628;-88
2022/04/24 09:36:11;;;;;;;6.78;1.48;;;;;;;29.44;32.83;98544.53;4955058;29;20208;-89
2022/04/24 09:39:40;;;;;;;4.45;1.48;;;;;;;29.66;33.06;98546.72;4955527;29;20641;-93
2022/04/24 09:42:11;;;;;;;6.65;1.27;;;;;;;29.64;33.31;98543.38;4938481;29;20280;-88
2022/04/24 09:48:25;;;;;;;3.72;1.23;;;;;;;29.45;34.10;98535.38;4955554;29;20259;-93
2022/04/24 09:50:53;;;;;;;3.22;1.25;;;;;;;29.83;32.53;98533.53;4954874;29;20180;-88
2022/04/24 09:53:41;;;;;;;5.30;1.23;;;;;;;29.80;33.18;98534.78;4955525;29;20173;-93
2022/04/24 09:56:25;;;;;;;4.65;1.45;;;;;;;29.82;32.63;98537.28;4954776;29;20205;-93
2022/04/24 09:58:57;;;;;;;5.97;1.25;;;;;;;30.10;32.45;98536.88;4937939;29;20258;-93
2022/04/24 10:01:23;;;;;;;4.63;1.27;;;;;;;30.24;32.67;98525.72;4955162;29;20157;-90
2022/04/24 10:04:27;;;;;;;6.43;1.77;;;;;;;29.97;33.75;98529.69;4938040;29;20299;-93
2022/04/24 10:07:10;;;;;;;6.70;1.33;;;;;;;29.98;31.32;98538.66;4883743;28;20195;-93
2022/04/24 10:09:40;;;;;;;2.60;1.23;;;;;;;30.07;32.85;98518.38;4938774;29;20185;-91
2022/04/24 10:12:50;;;;;;;4.85;1.30;;;;;;;29.89;30.99;98515.63;4922465;29;20647;-92
2022/04/24 10:15:32;;;;;;;6.10;1.63;;;;;;;29.75;31.33;98512.97;4843044;29;20716;-90
2022/04/24 10:18:46;;;;;;;7.32;2.05;;;;;;;30.15;31.80;98493.78;4953750;29;20176;-89
2022/04/24 10:21:49;;;;;;;8.18;1.35;;;;;;;30.09;32.82;98500.06;4877369;29;20376;-89
2022/04/24 10:25:01;;;;;;;3.88;1.30;;;;;;;30.37;31.49;98501.31;4883359;29;20187;-91
2022/04/24 10:28:09;;;;;;;5.95;1.27;;;;;;;30.75;32.69;98494.91;4935423;29;20554;-91
2022/04/24 10:33:52;;;;;;;2.58;1.23;;;;;;;31.24;31.10;98485.78;4917892;29;20208;-89
2022/04/24 10:37:18;;;;;;;6.88;1.15;;;;;;;31.26;28.79;98483.72;4937389;29;20307;-93
2022/04/24 10:39:54;;;;;;;8.57;1.00;;;;;;;30.90;29.67;98482.66;4936194;28;20317;-88
2022/04/24 10:42:29;;;;;;;6.85;1.42;;;;;;;30.74;28.51;98475.13;4954197;29;20200;-90
2022/04/24 10:44:55;;;;;;;7.72;1.70;;;;;;;30.46;29.71;98482.09;4937529;29;20239;-86
2022/04/24 10:47:22;;;;;;;3.85;1.40;;;;;;;30.76;28.91;98481.16;4953763;29;20170;-93
2022/04/24 10:49:50;;;;;;;3.55;0.98;;;;;;;30.90;29.16;98477.22;4925394;29;20182;-92
2022/04/24 10:52:19;;;;;;;3.33;1.23;;;;;;;31.12;29.71;98483.03;4937323;28;20244;-90
2022/04/24 10:54:46;;;;;;;10.10;1.80;;;;;;;31.02;28.46;98480.88;4955408;29;20188;-91
2022/04/24 10:57:23;;;;;;;7.45;1.35;;;;;;;30.36;28.91;98471.78;4956125;29;20293;-90
2022/04/24 11:00:28;;;;;;;9.10;3.55;;;;;;;30.79;28.51;98479.88;4937772;29;20176;-93
2022/04/24 11:03:18;;;;;;;6.78;2.78;;;;;;;30.84;29.81;98467.34;4936028;29;20256;-92
2022/04/24 11:06:02;;;;;;;13.55;3.95;;;;;;;31.08;29.67;98467.50;4939592;29;20177;-94
2022/04/24 11:08:29;;;;;;;5.65;1.77;;;;;;;31.43;29.43;98454.91;4952754;29;20200;-91
2022/04/24 11:11:05;;;;;;;6.35;2.50;;;;;;;31.12;28.71;98455.13;4956541;29;20189;-89
2022/04/24 11:13:32;;;;;;;2.92;1.33;;;;;;;30.84;29.45;98451.09;4938846;29;20162;-92
2022/04/24 11:16:00;;;;;;;5.85;1.30;;;;;;;30.80;29.76;98452.59;4921340;29;20421;-90
2022/04/24 11:18:27;;;;;;;7.82;1.30;;;;;;;30.73;28.74;98451.84;4938434;29;20178;-87
2022/04/24 11:21:55;;;;;;;4.53;1.13;;;;;;;30.64;30.63;98453.19;4905993;29;20198;-95
2022/04/24 11:24:41;;;;;;;4.13;1.30;;;;;;;31.09;29.22;98442.88;4897984;29;20202;-92
2022/04/24 11:27:14;;;;;;;4.53;1.75;;;;;;;30.57;29.61;98449.72;4925709;29;20190;-91
2022/04/24 11:30:13;;;;;;;2.15;0.82;;;;;;;30.59;29.92;98439.50;4951782;29;20259;-93
2022/04/24 11:32:38;;;;;;;4.45;1.27;;;;;;;30.41;31.39;98428.69;4954196;28;20633;-87
2022/04/24 11:35:13;;;;;;;5.78;1.02;;;;;;;30.56;30.40;98436.41;4953753;29;20219;-93
2022/04/24 11:37:43;;;;;;;8.77;1.42;;;;;;;30.98;31.08;98425.53;4938805;29;20255;-92
2022/04/24 11:40:10;;;;;;;6.10;1.10;;;;;;;31.20;29.11;98433.16;4946348;29;20208;-87
2022/04/24 11:42:36;;;;;;;6.05;1.30;;;;;;;30.30;29.29;98427.50;4942769;29;20186;-90
2022/04/24 11:50:55;;;;;;;6.55;1.35;;;;;;;31.23;29.71;98417.28;4942761;29;20243;-88
2022/04/24 11:53:23;;;;;;;4.18;1.20;;;;;;;30.85;29.44;98416.72;4954808;29;20189;-90
2022/04/24 11:56:04;;;;;;;4.28;1.00;;;;;;;30.88;29.03;98408.16;4938833;29;20214;-91
2022/04/24 11:58:35;;;;;;;6.10;1.38;;;;;;;31.20;28.96;98397.97;4946620;29;20197;-90
2022/04/24 12:01:17;;;;;;;19.33;1.73;;;;;;;30.87;29.45;98396.50;4952605;29;20196;-90
2022/04/24 12:03:46;;;;;;;4.00;1.17;;;;;;;30.85;28.79;98393.19;4940331;29;20227;-92
2022/04/24 12:06:49;;;;;;;2.78;1.40;;;;;;;31.06;29.69;98391.06;4942109;29;20256;-93
2022/04/24 12:09:24;;;;;;;3.75;1.13;;;;;;;31.22;28.81;98382.31;4936049;29;20213;-91
2022/04/24 12:12:18;;;;;;;3.28;0.93;;;;;;;31.09;28.10;98388.75;4946341;29;20657;-93
2022/04/24 12:15:15;;;;;;;5.40;1.80;;;;;;;31.40;28.54;98384.94;4942246;29;20625;-94
2022/04/24 12:17:58;;;;;;;11.45;1.63;;;;;;;31.67;27.17;98378.09;4940355;29;20190;-90
2022/04/24 12:20:41;;;;;;;4.50;1.50;;;;;;;31.30;27.63;98379.28;4938141;29;20181;-90
2022/04/24 12:23:11;;;;;;;6.43;1.67;;;;;;;31.51;28.71;98376.06;4936983;29;20170;-88
2022/04/24 12:25:56;;;;;;;3.90;1.05;;;;;;;31.48;28.64;98366.50;4945583;29;20181;-92
2022/04/24 12:28:42;;;;;;;7.50;1.15;;;;;;;31.54;26.95;98368.31;4944546;29;20277;-89
2022/04/24 12:31:29;;;;;;;10.02;2.33;;;;;;;31.77;27.43;98350.41;4926725;29;20518;-90
2022/04/24 12:33:57;;;;;;;11.73;1.67;;;;;;;31.63;27.17;98357.94;4936494;29;20653;-91
2022/04/24 12:37:08;;;;;;;7.03;1.55;;;;;;;31.86;27.94;98352.53;4937941;29;20224;-94
2022/04/24 12:39:38;;;;;;;8.82;1.70;;;;;;;32.03;26.75;98347.25;4934802;29;20224;-90
2022/04/24 12:42:35;;;;;;;8.55;1.63;;;;;;;32.27;26.79;98345.34;4954763;28;20213;-93